sensor_id;sensor_type;location;lat;lon;timestamp;P1;durP1;ratioP1;P2;durP2;ratioP2
60243;SDS011;46106;51.468;5.814;2023-06-04T00:02:15;3.25;;;1.10;;
60243;SDS011;46106;51.468;5.814;2023-06-04T00:04:40;2.05;;;1.08;;
60243;SDS011;46106;51.468;5.814;2023-06-04T00:07:06;2.72;;;1.27;;
60243;SDS011;46106;51.468;5.814;2023-06-04T00:09:31;1.42;;;1.15;;
60243;SDS011;46106;51.468;5.814;2023-06-04T00:11:57;4.88;;;1.20;;
60243;SDS011;46106;51.468;5.814;2023-06-04T00:14:23;6.03;;;1.23;;
60243;SDS011;46106;51.468;5.814;2023-06-04T00:16:48;3.35;;;0.95;;
60243;SDS011;46106;51.468;5.814;2023-06-04T00:19:14;2.80;;;1.10;;
60243;SDS011;46106;51.468;5.814;2023-06-04T00:21:39;2.42;;;0.85;;
60243;SDS011;46106;51.468;5.814;2023-06-04T00:24:05;1.30;;;1.00;;
60243;SDS011;46106;51.468;5.814;2023-06-04T00:26:31;1.83;;;0.90;;
60243;SDS011;46106;51.468;5.814;2023-06-04T00:28:57;5.60;;;1.13;;
60243;SDS011;46106;51.468;5.814;2023-06-04T00:31:22;1.23;;;0.90;;
60243;SDS011;46106;51.468;5.814;2023-06-04T00:33:48;1.95;;;0.80;;
60243;SDS011;46106;51.468;5.814;2023-06-04T00:36:14;2.83;;;1.30;;
60243;SDS011;46106;51.468;5.814;2023-06-04T00:38:39;2.05;;;0.93;;
60243;SDS011;46106;51.468;5.814;2023-06-04T00:41:05;1.42;;;1.00;;
60243;SDS011;46106;51.468;5.814;2023-06-04T00:43:31;6.72;;;1.08;;
60243;SDS011;46106;51.468;5.814;2023-06-04T00:46:01;1.48;;;1.10;;
60243;SDS011;46106;51.468;5.814;2023-06-04T00:48:27;2.00;;;1.00;;
60243;SDS011;46106;51.468;5.814;2023-06-04T00:50:53;6.10;;;1.30;;
60243;SDS011;46106;51.468;5.814;2023-06-04T00:53:20;1.38;;;1.02;;
60243;SDS011;46106;51.468;5.814;2023-06-04T00:55:48;3.33;;;1.05;;
60243;SDS011;46106;51.468;5.814;2023-06-04T00:58:13;2.97;;;1.17;;
60243;SDS011;46106;51.468;5.814;2023-06-04T01:00:40;1.60;;;0.90;;
60243;SDS011;46106;51.468;5.814;2023-06-04T01:03:16;2.67;;;0.90;;
60243;SDS011;46106;51.468;5.814;2023-06-04T01:05:48;1.00;;;0.90;;
60243;SDS011;46106;51.468;5.814;2023-06-04T01:08:25;2.33;;;0.90;;
60243;SDS011;46106;51.468;5.814;2023-06-04T01:10:55;3.10;;;1.00;;
60243;SDS011;46106;51.468;5.814;2023-06-04T01:13:21;3.55;;;0.95;;
60243;SDS011;46106;51.468;5.814;2023-06-04T01:15:47;1.73;;;1.08;;
60243;SDS011;46106;51.468;5.814;2023-06-04T01:18:21;2.90;;;1.08;;
60243;SDS011;46106;51.468;5.814;2023-06-04T01:20:58;6.40;;;1.15;;
60243;SDS011;46106;51.468;5.814;2023-06-04T01:23:34;5.57;;;1.05;;
60243;SDS011;46106;51.468;5.814;2023-06-04T01:26:10;10.07;;;1.10;;
60243;SDS011;46106;51.468;5.814;2023-06-04T01:28:37;4.88;;;1.00;;
60243;SDS011;46106;51.468;5.814;2023-06-04T01:31:04;3.80;;;0.95;;
60243;SDS011;46106;51.468;5.814;2023-06-04T01:33:32;2.10;;;0.88;;
60243;SDS011;46106;51.468;5.814;2023-06-04T01:35:58;2.65;;;1.13;;
60243;SDS011;46106;51.468;5.814;2023-06-04T01:38:23;3.08;;;1.02;;
60243;SDS011;46106;51.468;5.814;2023-06-04T01:40:49;1.02;;;0.90;;
60243;SDS011;46106;51.468;5.814;2023-06-04T01:43:16;3.53;;;1.17;;
60243;SDS011;46106;51.468;5.814;2023-06-04T01:45:41;1.08;;;0.98;;
60243;SDS011;46106;51.468;5.814;2023-06-04T01:48:07;2.90;;;0.80;;
60243;SDS011;46106;51.468;5.814;2023-06-04T01:50:33;4.45;;;1.10;;
60243;SDS011;46106;51.468;5.814;2023-06-04T01:52:58;5.07;;;1.05;;
60243;SDS011;46106;51.468;5.814;2023-06-04T01:55:24;6.28;;;0.98;;
60243;SDS011;46106;51.468;5.814;2023-06-04T01:57:51;2.33;;;1.33;;
60243;SDS011;46106;51.468;5.814;2023-06-04T02:00:16;2.70;;;1.17;;
60243;SDS011;46106;51.468;5.814;2023-06-04T02:02:43;4.70;;;1.10;;
60243;SDS011;46106;51.468;5.814;2023-06-04T02:05:11;3.20;;;0.90;;
60243;SDS011;46106;51.468;5.814;2023-06-04T02:07:43;2.20;;;1.23;;
60243;SDS011;46106;51.468;5.814;2023-06-04T02:10:14;4.70;;;0.88;;
60243;SDS011;46106;51.468;5.814;2023-06-04T02:15:19;3.28;;;1.10;;
60243;SDS011;46106;51.468;5.814;2023-06-04T02:17:45;1.27;;;1.00;;
60243;SDS011;46106;51.468;5.814;2023-06-04T02:20:12;5.53;;;1.10;;
60243;SDS011;46106;51.468;5.814;2023-06-04T02:22:38;2.95;;;1.05;;
60243;SDS011;46106;51.468;5.814;2023-06-04T02:25:04;2.63;;;1.02;;
60243;SDS011;46106;51.468;5.814;2023-06-04T02:27:30;1.80;;;1.13;;
60243;SDS011;46106;51.468;5.814;2023-06-04T02:29:56;6.38;;;1.25;;
60243;SDS011;46106;51.468;5.814;2023-06-04T02:32:21;2.30;;;1.17;;
60243;SDS011;46106;51.468;5.814;2023-06-04T02:34:47;1.58;;;0.98;;
60243;SDS011;46106;51.468;5.814;2023-06-04T02:37:14;4.80;;;1.15;;
60243;SDS011;46106;51.468;5.814;2023-06-04T02:39:39;4.85;;;1.27;;
60243;SDS011;46106;51.468;5.814;2023-06-04T02:42:05;3.60;;;1.30;;
60243;SDS011;46106;51.468;5.814;2023-06-04T02:44:32;3.60;;;1.15;;
60243;SDS011;46106;51.468;5.814;2023-06-04T02:46:57;3.80;;;1.27;;
60243;SDS011;46106;51.468;5.814;2023-06-04T02:49:23;2.60;;;1.35;;
60243;SDS011;46106;51.468;5.814;2023-06-04T02:51:48;1.55;;;1.00;;
60243;SDS011;46106;51.468;5.814;2023-06-04T02:54:14;2.38;;;1.10;;
60243;SDS011;46106;51.468;5.814;2023-06-04T02:56:40;1.70;;;1.25;;
60243;SDS011;46106;51.468;5.814;2023-06-04T02:59:05;4.07;;;1.60;;
60243;SDS011;46106;51.468;5.814;2023-06-04T03:01:34;3.08;;;1.10;;
60243;SDS011;46106;51.468;5.814;2023-06-04T03:04:00;3.25;;;1.23;;
60243;SDS011;46106;51.468;5.814;2023-06-04T03:06:29;3.83;;;1.50;;
60243;SDS011;46106;51.468;5.814;2023-06-04T03:08:54;3.03;;;1.13;;
60243;SDS011;46106;51.468;5.814;2023-06-04T03:11:20;3.50;;;1.00;;
60243;SDS011;46106;51.468;5.814;2023-06-04T03:13:46;1.95;;;0.95;;
60243;SDS011;46106;51.468;5.814;2023-06-04T03:16:13;4.00;;;1.02;;
60243;SDS011;46106;51.468;5.814;2023-06-04T03:18:42;5.93;;;1.20;;
60243;SDS011;46106;51.468;5.814;2023-06-04T03:21:10;4.25;;;1.23;;
60243;SDS011;46106;51.468;5.814;2023-06-04T03:23:39;1.35;;;1.20;;
60243;SDS011;46106;51.468;5.814;2023-06-04T03:26:05;2.85;;;1.10;;
60243;SDS011;46106;51.468;5.814;2023-06-04T03:28:31;3.30;;;1.00;;
60243;SDS011;46106;51.468;5.814;2023-06-04T03:30:58;1.98;;;1.15;;
60243;SDS011;46106;51.468;5.814;2023-06-04T03:33:24;2.13;;;1.42;;
60243;SDS011;46106;51.468;5.814;2023-06-04T03:35:50;2.20;;;1.50;;
60243;SDS011;46106;51.468;5.814;2023-06-04T03:38:17;2.97;;;1.40;;
60243;SDS011;46106;51.468;5.814;2023-06-04T03:40:43;1.85;;;1.10;;
60243;SDS011;46106;51.468;5.814;2023-06-04T03:43:09;3.78;;;1.17;;
60243;SDS011;46106;51.468;5.814;2023-06-04T03:45:35;1.80;;;1.15;;
60243;SDS011;46106;51.468;5.814;2023-06-04T03:48:00;3.25;;;1.35;;
60243;SDS011;46106;51.468;5.814;2023-06-04T03:50:27;1.83;;;1.10;;
60243;SDS011;46106;51.468;5.814;2023-06-04T03:52:52;3.83;;;1.30;;
60243;SDS011;46106;51.468;5.814;2023-06-04T03:55:18;4.90;;;1.48;;
60243;SDS011;46106;51.468;5.814;2023-06-04T03:57:44;2.83;;;1.30;;
60243;SDS011;46106;51.468;5.814;2023-06-04T04:00:10;2.08;;;1.15;;
60243;SDS011;46106;51.468;5.814;2023-06-04T04:02:39;1.92;;;1.38;;
60243;SDS011;46106;51.468;5.814;2023-06-04T04:05:05;4.85;;;1.35;;
60243;SDS011;46106;51.468;5.814;2023-06-04T04:07:31;7.05;;;1.20;;
60243;SDS011;46106;51.468;5.814;2023-06-04T04:09:56;2.95;;;1.10;;
60243;SDS011;46106;51.468;5.814;2023-06-04T04:12:22;2.28;;;1.27;;
60243;SDS011;46106;51.468;5.814;2023-06-04T04:14:47;4.72;;;1.38;;
60243;SDS011;46106;51.468;5.814;2023-06-04T04:17:15;2.33;;;1.42;;
60243;SDS011;46106;51.468;5.814;2023-06-04T04:19:41;2.58;;;1.40;;
60243;SDS011;46106;51.468;5.814;2023-06-04T04:22:07;2.00;;;1.20;;
60243;SDS011;46106;51.468;5.814;2023-06-04T04:24:34;2.75;;;1.60;;
60243;SDS011;46106;51.468;5.814;2023-06-04T04:27:02;5.00;;;1.13;;
60243;SDS011;46106;51.468;5.814;2023-06-04T04:29:28;3.10;;;1.20;;
60243;SDS011;46106;51.468;5.814;2023-06-04T04:31:57;3.50;;;1.58;;
60243;SDS011;46106;51.468;5.814;2023-06-04T04:34:27;3.92;;;1.38;;
60243;SDS011;46106;51.468;5.814;2023-06-04T04:36:53;4.20;;;1.30;;
60243;SDS011;46106;51.468;5.814;2023-06-04T04:39:21;1.85;;;1.10;;
60243;SDS011;46106;51.468;5.814;2023-06-04T04:41:48;3.47;;;1.30;;
60243;SDS011;46106;51.468;5.814;2023-06-04T04:44:14;5.07;;;1.48;;
60243;SDS011;46106;51.468;5.814;2023-06-04T04:46:39;7.03;;;1.50;;
60243;SDS011;46106;51.468;5.814;2023-06-04T04:49:05;3.05;;;1.40;;
60243;SDS011;46106;51.468;5.814;2023-06-04T04:51:30;3.72;;;1.27;;
60243;SDS011;46106;51.468;5.814;2023-06-04T04:53:55;6.05;;;1.48;;
60243;SDS011;46106;51.468;5.814;2023-06-04T04:56:21;3.30;;;1.58;;
60243;SDS011;46106;51.468;5.814;2023-06-04T04:58:47;3.70;;;1.33;;
60243;SDS011;46106;51.468;5.814;2023-06-04T05:01:14;6.72;;;1.83;;
60243;SDS011;46106;51.468;5.814;2023-06-04T05:03:39;4.60;;;1.55;;
60243;SDS011;46106;51.468;5.814;2023-06-04T05:06:05;3.38;;;1.20;;
60243;SDS011;46106;51.468;5.814;2023-06-04T05:08:30;3.75;;;1.33;;
60243;SDS011;46106;51.468;5.814;2023-06-04T05:10:56;3.20;;;1.20;;
60243;SDS011;46106;51.468;5.814;2023-06-04T05:13:21;2.35;;;1.38;;
60243;SDS011;46106;51.468;5.814;2023-06-04T05:15:48;4.45;;;1.27;;
60243;SDS011;46106;51.468;5.814;2023-06-04T05:18:17;3.55;;;1.52;;
60243;SDS011;46106;51.468;5.814;2023-06-04T05:20:45;2.10;;;1.48;;
60243;SDS011;46106;51.468;5.814;2023-06-04T05:23:11;2.67;;;1.30;;
60243;SDS011;46106;51.468;5.814;2023-06-04T05:25:37;3.53;;;1.58;;
60243;SDS011;46106;51.468;5.814;2023-06-04T05:28:03;3.70;;;1.52;;
60243;SDS011;46106;51.468;5.814;2023-06-04T05:30:31;2.00;;;1.40;;
60243;SDS011;46106;51.468;5.814;2023-06-04T05:32:58;5.50;;;1.90;;
60243;SDS011;46106;51.468;5.814;2023-06-04T05:35:24;3.08;;;1.55;;
60243;SDS011;46106;51.468;5.814;2023-06-04T05:37:50;2.75;;;1.27;;
60243;SDS011;46106;51.468;5.814;2023-06-04T05:40:19;4.63;;;1.20;;
60243;SDS011;46106;51.468;5.814;2023-06-04T05:42:47;3.78;;;1.20;;
60243;SDS011;46106;51.468;5.814;2023-06-04T05:45:13;3.10;;;1.38;;
60243;SDS011;46106;51.468;5.814;2023-06-04T05:47:39;3.80;;;1.33;;
60243;SDS011;46106;51.468;5.814;2023-06-04T05:50:05;3.50;;;1.33;;
60243;SDS011;46106;51.468;5.814;2023-06-04T05:52:31;6.10;;;1.17;;
60243;SDS011;46106;51.468;5.814;2023-06-04T05:54:58;4.30;;;1.27;;
60243;SDS011;46106;51.468;5.814;2023-06-04T05:57:24;1.23;;;1.13;;
60243;SDS011;46106;51.468;5.814;2023-06-04T05:59:50;1.48;;;1.10;;
60243;SDS011;46106;51.468;5.814;2023-06-04T06:02:15;2.63;;;1.30;;
60243;SDS011;46106;51.468;5.814;2023-06-04T06:04:41;3.60;;;1.48;;
60243;SDS011;46106;51.468;5.814;2023-06-04T06:07:07;2.70;;;1.40;;
60243;SDS011;46106;51.468;5.814;2023-06-04T06:09:32;2.80;;;1.38;;
60243;SDS011;46106;51.468;5.814;2023-06-04T06:11:58;2.20;;;1.25;;
60243;SDS011;46106;51.468;5.814;2023-06-04T06:14:23;3.63;;;1.30;;
60243;SDS011;46106;51.468;5.814;2023-06-04T06:16:49;4.22;;;1.40;;
60243;SDS011;46106;51.468;5.814;2023-06-04T06:19:15;4.40;;;1.40;;
60243;SDS011;46106;51.468;5.814;2023-06-04T06:21:40;2.25;;;1.30;;
60243;SDS011;46106;51.468;5.814;2023-06-04T06:24:05;4.72;;;1.58;;
60243;SDS011;46106;51.468;5.814;2023-06-04T06:26:31;7.07;;;1.45;;
60243;SDS011;46106;51.468;5.814;2023-06-04T06:28:56;2.15;;;1.30;;
60243;SDS011;46106;51.468;5.814;2023-06-04T06:31:22;4.30;;;1.30;;
60243;SDS011;46106;51.468;5.814;2023-06-04T06:33:48;13.50;;;1.50;;
60243;SDS011;46106;51.468;5.814;2023-06-04T06:36:13;5.15;;;1.40;;
60243;SDS011;46106;51.468;5.814;2023-06-04T06:38:39;2.63;;;1.50;;
60243;SDS011;46106;51.468;5.814;2023-06-04T06:41:05;4.05;;;1.40;;
60243;SDS011;46106;51.468;5.814;2023-06-04T06:43:31;4.45;;;1.25;;
60243;SDS011;46106;51.468;5.814;2023-06-04T06:45:57;2.63;;;1.20;;
60243;SDS011;46106;51.468;5.814;2023-06-04T06:48:22;3.63;;;1.65;;
60243;SDS011;46106;51.468;5.814;2023-06-04T06:50:48;3.15;;;1.23;;
60243;SDS011;46106;51.468;5.814;2023-06-04T06:53:13;2.20;;;1.30;;
60243;SDS011;46106;51.468;5.814;2023-06-04T06:55:39;3.08;;;1.42;;
60243;SDS011;46106;51.468;5.814;2023-06-04T06:58:04;3.38;;;1.48;;
60243;SDS011;46106;51.468;5.814;2023-06-04T07:00:30;1.60;;;1.10;;
60243;SDS011;46106;51.468;5.814;2023-06-04T07:02:55;7.38;;;1.17;;
60243;SDS011;46106;51.468;5.814;2023-06-04T07:05:21;3.50;;;1.35;;
60243;SDS011;46106;51.468;5.814;2023-06-04T07:07:46;4.30;;;1.33;;
60243;SDS011;46106;51.468;5.814;2023-06-04T07:10:13;5.18;;;1.20;;
60243;SDS011;46106;51.468;5.814;2023-06-04T07:12:39;3.90;;;1.40;;
60243;SDS011;46106;51.468;5.814;2023-06-04T07:15:05;12.50;;;1.83;;
60243;SDS011;46106;51.468;5.814;2023-06-04T07:17:32;3.20;;;1.10;;
60243;SDS011;46106;51.468;5.814;2023-06-04T07:19:57;4.20;;;1.10;;
60243;SDS011;46106;51.468;5.814;2023-06-04T07:22:23;3.83;;;1.20;;
60243;SDS011;46106;51.468;5.814;2023-06-04T07:24:48;4.97;;;1.20;;
60243;SDS011;46106;51.468;5.814;2023-06-04T07:27:15;3.83;;;1.27;;
60243;SDS011;46106;51.468;5.814;2023-06-04T07:29:42;4.63;;;1.10;;
60243;SDS011;46106;51.468;5.814;2023-06-04T07:32:09;3.47;;;1.30;;
60243;SDS011;46106;51.468;5.814;2023-06-04T07:34:34;5.78;;;1.42;;
60243;SDS011;46106;51.468;5.814;2023-06-04T07:37:02;4.07;;;1.30;;
60243;SDS011;46106;51.468;5.814;2023-06-04T07:39:27;1.60;;;1.00;;
60243;SDS011;46106;51.468;5.814;2023-06-04T07:41:53;8.82;;;1.23;;
60243;SDS011;46106;51.468;5.814;2023-06-04T07:44:19;4.32;;;1.25;;
60243;SDS011;46106;51.468;5.814;2023-06-04T07:46:44;1.63;;;1.10;;
60243;SDS011;46106;51.468;5.814;2023-06-04T07:49:10;2.53;;;1.00;;
60243;SDS011;46106;51.468;5.814;2023-06-04T07:51:35;6.85;;;1.20;;
60243;SDS011;46106;51.468;5.814;2023-06-04T07:54:02;17.90;;;1.60;;
60243;SDS011;46106;51.468;5.814;2023-06-04T07:56:28;4.20;;;0.90;;
60243;SDS011;46106;51.468;5.814;2023-06-04T07:58:54;5.45;;;1.13;;
60243;SDS011;46106;51.468;5.814;2023-06-04T08:01:19;1.17;;;0.88;;
60243;SDS011;46106;51.468;5.814;2023-06-04T08:03:45;3.38;;;1.00;;
60243;SDS011;46106;51.468;5.814;2023-06-04T08:06:10;3.20;;;0.93;;
60243;SDS011;46106;51.468;5.814;2023-06-04T08:08:36;3.55;;;0.90;;
60243;SDS011;46106;51.468;5.814;2023-06-04T08:11:02;5.45;;;1.00;;
60243;SDS011;46106;51.468;5.814;2023-06-04T08:13:28;15.07;;;1.25;;
60243;SDS011;46106;51.468;5.814;2023-06-04T08:15:53;2.55;;;1.02;;
60243;SDS011;46106;51.468;5.814;2023-06-04T08:18:19;1.33;;;0.90;;
60243;SDS011;46106;51.468;5.814;2023-06-04T08:20:44;3.08;;;0.90;;
60243;SDS011;46106;51.468;5.814;2023-06-04T08:23:10;3.70;;;1.10;;
60243;SDS011;46106;51.468;5.814;2023-06-04T08:25:36;4.55;;;0.80;;
60243;SDS011;46106;51.468;5.814;2023-06-04T08:30:37;3.33;;;0.80;;
60243;SDS011;46106;51.468;5.814;2023-06-04T08:33:02;1.30;;;0.90;;
60243;SDS011;46106;51.468;5.814;2023-06-04T08:35:28;3.50;;;1.00;;
60243;SDS011;46106;51.468;5.814;2023-06-04T08:37:53;3.40;;;0.90;;
60243;SDS011;46106;51.468;5.814;2023-06-04T08:40:19;1.33;;;0.77;;
60243;SDS011;46106;51.468;5.814;2023-06-04T08:42:44;1.20;;;0.68;;
60243;SDS011;46106;51.468;5.814;2023-06-04T08:45:12;1.10;;;0.70;;
60243;SDS011;46106;51.468;5.814;2023-06-04T08:47:43;1.73;;;0.90;;
60243;SDS011;46106;51.468;5.814;2023-06-04T08:50:13;9.32;;;0.80;;
60243;SDS011;46106;51.468;5.814;2023-06-04T08:52:45;2.53;;;0.73;;
60243;SDS011;46106;51.468;5.814;2023-06-04T08:55:11;3.63;;;0.80;;
60243;SDS011;46106;51.468;5.814;2023-06-04T09:02:49;2.17;;;0.68;;
60243;SDS011;46106;51.468;5.814;2023-06-04T09:10:25;3.33;;;0.70;;
60243;SDS011;46106;51.468;5.814;2023-06-04T09:12:54;3.75;;;0.82;;
60243;SDS011;46106;51.468;5.814;2023-06-04T09:15:23;2.28;;;0.60;;
60243;SDS011;46106;51.468;5.814;2023-06-04T09:22:59;0.50;;;0.50;;
60243;SDS011;46106;51.468;5.814;2023-06-04T09:25:25;0.70;;;0.55;;
60243;SDS011;46106;51.468;5.814;2023-06-04T09:27:52;0.70;;;0.60;;
60243;SDS011;46106;51.468;5.814;2023-06-04T09:33:06;1.23;;;0.70;;
60243;SDS011;46106;51.468;5.814;2023-06-04T09:40:45;2.58;;;0.65;;
60243;SDS011;46106;51.468;5.814;2023-06-04T09:43:11;8.10;;;0.68;;
60243;SDS011;46106;51.468;5.814;2023-06-04T09:45:47;1.75;;;0.65;;
60243;SDS011;46106;51.468;5.814;2023-06-04T09:50:48;4.07;;;0.57;;
60243;SDS011;46106;51.468;5.814;2023-06-04T09:53:14;0.75;;;0.50;;
60243;SDS011;46106;51.468;5.814;2023-06-04T09:58:23;0.80;;;0.57;;
60243;SDS011;46106;51.468;5.814;2023-06-04T10:00:56;0.80;;;0.50;;
60243;SDS011;46106;51.468;5.814;2023-06-04T10:03:29;1.67;;;0.50;;
60243;SDS011;46106;51.468;5.814;2023-06-04T10:08:33;2.25;;;0.63;;
60243;SDS011;46106;51.468;5.814;2023-06-04T10:11:00;2.13;;;0.60;;
60243;SDS011;46106;51.468;5.814;2023-06-04T10:13:27;3.88;;;0.70;;
60243;SDS011;46106;51.468;5.814;2023-06-04T10:16:13;0.88;;;0.50;;
60243;SDS011;46106;51.468;5.814;2023-06-04T10:18:39;2.17;;;0.70;;
60243;SDS011;46106;51.468;5.814;2023-06-04T10:21:05;0.98;;;0.70;;
60243;SDS011;46106;51.468;5.814;2023-06-04T10:23:33;3.13;;;0.77;;
60243;SDS011;46106;51.468;5.814;2023-06-04T10:25:58;0.65;;;0.50;;
60243;SDS011;46106;51.468;5.814;2023-06-04T10:28:27;0.50;;;0.50;;
60243;SDS011;46106;51.468;5.814;2023-06-04T10:30:53;1.23;;;0.60;;
60243;SDS011;46106;51.468;5.814;2023-06-04T10:33:19;1.85;;;0.40;;
60243;SDS011;46106;51.468;5.814;2023-06-04T10:35:49;2.67;;;0.60;;
60243;SDS011;46106;51.468;5.814;2023-06-04T10:38:15;4.00;;;0.90;;
60243;SDS011;46106;51.468;5.814;2023-06-04T10:40:45;2.50;;;0.70;;
60243;SDS011;46106;51.468;5.814;2023-06-04T10:43:11;2.47;;;0.50;;
60243;SDS011;46106;51.468;5.814;2023-06-04T10:45:38;0.60;;;0.60;;
60243;SDS011;46106;51.468;5.814;2023-06-04T10:48:08;1.35;;;0.60;;
60243;SDS011;46106;51.468;5.814;2023-06-04T10:50:46;0.95;;;0.60;;
60243;SDS011;46106;51.468;5.814;2023-06-04T10:53:16;1.80;;;0.68;;
60243;SDS011;46106;51.468;5.814;2023-06-04T10:55:44;3.97;;;0.70;;
60243;SDS011;46106;51.468;5.814;2023-06-04T10:58:10;4.13;;;0.50;;
60243;SDS011;46106;51.468;5.814;2023-06-04T11:00:37;1.05;;;0.60;;
60243;SDS011;46106;51.468;5.814;2023-06-04T11:03:04;1.45;;;0.60;;
60243;SDS011;46106;51.468;5.814;2023-06-04T11:05:35;0.57;;;0.57;;
60243;SDS011;46106;51.468;5.814;2023-06-04T11:08:05;0.70;;;0.50;;
60243;SDS011;46106;51.468;5.814;2023-06-04T11:10:32;4.07;;;0.65;;
60243;SDS011;46106;51.468;5.814;2023-06-04T11:13:02;1.80;;;0.60;;
60243;SDS011;46106;51.468;5.814;2023-06-04T11:15:44;1.58;;;0.60;;
60243;SDS011;46106;51.468;5.814;2023-06-04T11:18:15;1.00;;;0.70;;
60243;SDS011;46106;51.468;5.814;2023-06-04T11:20:43;2.05;;;0.68;;
60243;SDS011;46106;51.468;5.814;2023-06-04T11:23:12;2.30;;;0.68;;
60243;SDS011;46106;51.468;5.814;2023-06-04T11:25:39;0.60;;;0.60;;
60243;SDS011;46106;51.468;5.814;2023-06-04T11:28:05;1.25;;;0.70;;
60243;SDS011;46106;51.468;5.814;2023-06-04T11:30:31;3.75;;;0.70;;
60243;SDS011;46106;51.468;5.814;2023-06-04T11:33:03;1.00;;;0.77;;
60243;SDS011;46106;51.468;5.814;2023-06-04T11:35:30;4.05;;;0.75;;
60243;SDS011;46106;51.468;5.814;2023-06-04T11:37:56;4.47;;;0.60;;
60243;SDS011;46106;51.468;5.814;2023-06-04T11:40:23;3.15;;;0.73;;
60243;SDS011;46106;51.468;5.814;2023-06-04T11:42:49;1.80;;;0.70;;
60243;SDS011;46106;51.468;5.814;2023-06-04T11:45:19;1.17;;;0.70;;
60243;SDS011;46106;51.468;5.814;2023-06-04T11:47:52;1.25;;;0.60;;
60243;SDS011;46106;51.468;5.814;2023-06-04T11:50:20;1.30;;;0.55;;
60243;SDS011;46106;51.468;5.814;2023-06-04T11:52:47;3.45;;;0.75;;
60243;SDS011;46106;51.468;5.814;2023-06-04T11:55:13;1.80;;;1.15;;
60243;SDS011;46106;51.468;5.814;2023-06-04T11:57:39;0.88;;;0.75;;
60243;SDS011;46106;51.468;5.814;2023-06-04T12:00:05;1.42;;;1.20;;
60243;SDS011;46106;51.468;5.814;2023-06-04T12:02:39;1.00;;;0.80;;
60243;SDS011;46106;51.468;5.814;2023-06-04T12:05:15;2.00;;;0.80;;
60243;SDS011;46106;51.468;5.814;2023-06-04T12:07:43;2.20;;;0.90;;
60243;SDS011;46106;51.468;5.814;2023-06-04T12:10:09;1.48;;;0.68;;
60243;SDS011;46106;51.468;5.814;2023-06-04T12:12:38;1.63;;;1.08;;
60243;SDS011;46106;51.468;5.814;2023-06-04T12:15:05;1.13;;;0.85;;
60243;SDS011;46106;51.468;5.814;2023-06-04T12:17:32;12.75;;;1.58;;
60243;SDS011;46106;51.468;5.814;2023-06-04T12:19:58;1.58;;;0.90;;
60243;SDS011;46106;51.468;5.814;2023-06-04T12:22:24;1.15;;;0.70;;
60243;SDS011;46106;51.468;5.814;2023-06-04T12:24:52;2.67;;;0.80;;
60243;SDS011;46106;51.468;5.814;2023-06-04T12:27:19;1.27;;;1.17;;
60243;SDS011;46106;51.468;5.814;2023-06-04T12:29:56;1.75;;;0.55;;
60243;SDS011;46106;51.468;5.814;2023-06-04T12:32:27;2.97;;;0.80;;
60243;SDS011;46106;51.468;5.814;2023-06-04T12:34:53;2.72;;;1.00;;
60243;SDS011;46106;51.468;5.814;2023-06-04T12:37:20;0.82;;;0.75;;
60243;SDS011;46106;51.468;5.814;2023-06-04T12:39:50;2.95;;;0.70;;
60243;SDS011;46106;51.468;5.814;2023-06-04T12:42:15;2.40;;;0.90;;
60243;SDS011;46106;51.468;5.814;2023-06-04T12:44:44;7.85;;;1.90;;
60243;SDS011;46106;51.468;5.814;2023-06-04T12:47:10;8.18;;;0.90;;
60243;SDS011;46106;51.468;5.814;2023-06-04T12:49:36;1.10;;;0.68;;
60243;SDS011;46106;51.468;5.814;2023-06-04T12:52:02;2.30;;;1.10;;
60243;SDS011;46106;51.468;5.814;2023-06-04T12:54:28;4.75;;;0.80;;
60243;SDS011;46106;51.468;5.814;2023-06-04T12:56:54;1.70;;;0.70;;
60243;SDS011;46106;51.468;5.814;2023-06-04T12:59:21;1.55;;;0.70;;
60243;SDS011;46106;51.468;5.814;2023-06-04T13:01:47;0.80;;;0.68;;
60243;SDS011;46106;51.468;5.814;2023-06-04T13:04:13;1.98;;;0.98;;
60243;SDS011;46106;51.468;5.814;2023-06-04T13:06:38;0.80;;;0.65;;
60243;SDS011;46106;51.468;5.814;2023-06-04T13:09:05;1.63;;;0.70;;
60243;SDS011;46106;51.468;5.814;2023-06-04T13:11:43;3.22;;;0.90;;
60243;SDS011;46106;51.468;5.814;2023-06-04T13:14:09;11.82;;;0.80;;
60243;SDS011;46106;51.468;5.814;2023-06-04T13:16:35;1.83;;;0.90;;
60243;SDS011;46106;51.468;5.814;2023-06-04T13:19:01;4.32;;;0.90;;
60243;SDS011;46106;51.468;5.814;2023-06-04T13:21:27;5.97;;;0.68;;
60243;SDS011;46106;51.468;5.814;2023-06-04T13:23:53;2.15;;;0.70;;
60243;SDS011;46106;51.468;5.814;2023-06-04T13:26:18;1.38;;;0.85;;
60243;SDS011;46106;51.468;5.814;2023-06-04T13:28:45;1.35;;;0.70;;
60243;SDS011;46106;51.468;5.814;2023-06-04T13:31:11;1.90;;;0.75;;
60243;SDS011;46106;51.468;5.814;2023-06-04T13:33:36;4.28;;;0.90;;
60243;SDS011;46106;51.468;5.814;2023-06-04T13:36:02;3.13;;;0.85;;
60243;SDS011;46106;51.468;5.814;2023-06-04T13:38:29;3.08;;;0.82;;
60243;SDS011;46106;51.468;5.814;2023-06-04T13:40:56;4.95;;;0.75;;
60243;SDS011;46106;51.468;5.814;2023-06-04T13:43:21;1.98;;;0.80;;
60243;SDS011;46106;51.468;5.814;2023-06-04T13:45:47;2.17;;;0.90;;
60243;SDS011;46106;51.468;5.814;2023-06-04T13:48:12;1.20;;;0.70;;
60243;SDS011;46106;51.468;5.814;2023-06-04T13:50:38;1.77;;;0.70;;
60243;SDS011;46106;51.468;5.814;2023-06-04T13:53:03;4.35;;;0.70;;
60243;SDS011;46106;51.468;5.814;2023-06-04T13:55:29;1.20;;;0.70;;
60243;SDS011;46106;51.468;5.814;2023-06-04T13:57:55;1.42;;;0.68;;
60243;SDS011;46106;51.468;5.814;2023-06-04T14:00:20;2.45;;;0.75;;
60243;SDS011;46106;51.468;5.814;2023-06-04T14:02:50;1.00;;;0.80;;
60243;SDS011;46106;51.468;5.814;2023-06-04T14:05:16;5.00;;;0.88;;
60243;SDS011;46106;51.468;5.814;2023-06-04T14:07:42;0.88;;;0.80;;
60243;SDS011;46106;51.468;5.814;2023-06-04T14:10:10;0.90;;;0.65;;
60243;SDS011;46106;51.468;5.814;2023-06-04T14:12:37;1.48;;;0.82;;
60243;SDS011;46106;51.468;5.814;2023-06-04T14:15:04;3.67;;;0.90;;
60243;SDS011;46106;51.468;5.814;2023-06-04T14:17:30;3.33;;;1.00;;
60243;SDS011;46106;51.468;5.814;2023-06-04T14:19:56;2.30;;;1.35;;
60243;SDS011;46106;51.468;5.814;2023-06-04T14:22:21;2.30;;;0.88;;
60243;SDS011;46106;51.468;5.814;2023-06-04T14:24:47;1.90;;;0.63;;
60243;SDS011;46106;51.468;5.814;2023-06-04T14:27:12;0.73;;;0.55;;
60243;SDS011;46106;51.468;5.814;2023-06-04T14:29:38;2.10;;;0.70;;
60243;SDS011;46106;51.468;5.814;2023-06-04T14:32:04;1.55;;;0.73;;
60243;SDS011;46106;51.468;5.814;2023-06-04T14:34:30;1.13;;;0.80;;
60243;SDS011;46106;51.468;5.814;2023-06-04T14:36:57;2.15;;;0.88;;
60243;SDS011;46106;51.468;5.814;2023-06-04T14:39:25;3.33;;;0.75;;
60243;SDS011;46106;51.468;5.814;2023-06-04T14:41:51;1.08;;;0.85;;
60243;SDS011;46106;51.468;5.814;2023-06-04T14:44:17;0.70;;;0.70;;
60243;SDS011;46106;51.468;5.814;2023-06-04T14:46:43;1.02;;;0.80;;
60243;SDS011;46106;51.468;5.814;2023-06-04T14:49:08;3.30;;;0.60;;
60243;SDS011;46106;51.468;5.814;2023-06-04T14:51:34;3.00;;;0.77;;
60243;SDS011;46106;51.468;5.814;2023-06-04T14:53:59;1.73;;;0.75;;
60243;SDS011;46106;51.468;5.814;2023-06-04T14:56:25;2.50;;;0.80;;
60243;SDS011;46106;51.468;5.814;2023-06-04T14:58:51;1.35;;;0.90;;
60243;SDS011;46106;51.468;5.814;2023-06-04T15:01:17;2.63;;;1.20;;
60243;SDS011;46106;51.468;5.814;2023-06-04T15:03:42;3.70;;;0.82;;
60243;SDS011;46106;51.468;5.814;2023-06-04T15:06:08;1.83;;;0.85;;
60243;SDS011;46106;51.468;5.814;2023-06-04T15:08:33;4.88;;;1.00;;
60243;SDS011;46106;51.468;5.814;2023-06-04T15:10:59;5.22;;;1.00;;
60243;SDS011;46106;51.468;5.814;2023-06-04T15:13:24;3.05;;;1.10;;
60243;SDS011;46106;51.468;5.814;2023-06-04T15:15:50;0.93;;;0.80;;
60243;SDS011;46106;51.468;5.814;2023-06-04T15:18:15;2.15;;;0.90;;
60243;SDS011;46106;51.468;5.814;2023-06-04T15:20:41;2.25;;;0.95;;
60243;SDS011;46106;51.468;5.814;2023-06-04T15:23:06;1.30;;;1.17;;